KJCT - Junction/Kimble Cnty, TX, US

Issued at 0817 UTC 26 May 2019
Updated at 0909 UTC 26 May 2019
Potential Impact None Slight Moderate High
Time0851Z 26/10Z 26/11Z 26/12Z 26/13Z 26/14Z 26/15Z 26/16Z 26/17Z 26/18Z 26/19Z 26/20Z 26/21Z 26/22Z>>
Type OBS PRVL PRVL PRVL PRVL PRVL PRVL PRVL PRVL PRVL PRVL PRVL PRVL PRVL
VIS 10 >6 >6 >6 >6 >6 >6 >6 >6 >6 >6 >6 >6 >6
CIG -- 15 15 15 15 15 15 15 50 50 50 50 50 50
Cover SCT BKN BKN BKN BKN BKN BKN BKN BKN BKN BKN BKN BKN BKN
FltCat VFR MVFR MVFR MVFR MVFR MVFR MVFR MVFR VFR VFR VFR VFR VFR VFR
WX -- -- -- -- -- -- -- -- -- -- -- -- -- --
WDir 160 160 160 160 160 160 160 160 160 160 160 160 160 160
WSpd 6 11 11 11 11 11 11 11 14 14 14 14 14 14
WGst -- -- -- -- -- -- -- -- 22 22 22 22 22 22
Raw TAF
KJCT 260817Z 2608/2706 15011KT P6SM SCT250
  FM260900 16011KT P6SM BKN015
  FM261700 16014G22KT P6SM BKN050
  FM270100 16012KT P6SM BKN250


Raw METAR
KJCT 260851Z AUTO 16006KT 10SM SCT021 22/18 A2999 RMK AO2 SLP119 T02170183 56005
KJCT 260751Z AUTO 14003KT 9SM FEW023 22/18 A3000 RMK AO2 SLP120 T02170183
KJCT 260651Z AUTO 14010KT 10SM FEW023 23/18 A3000 RMK AO2 SLP122 T02330183

METAR Board
Radar Display
Forecast Discussion
For situational awareness. Not to be used for flight planning purposes.